Time;durP1;ratioP1;P1;durP2;ratioP2;P2;SDS_P1;SDS_P2;PMS_P1;PMS_P2;Temp;Humidity;BMP_temperature;BMP_pressure;BME280_temperature;BME280_humidity;BME280_pressure;Samples;Min_cycle;Max_cycle;Signal;HPM_P1;HPM_P2
2023/08/18 00:00:35;;;;;;;6.82;6.13;;;;;;;;;;5056643;28;20103;-79
2023/08/18 00:03:01;;;;;;;8.93;6.80;;;;;;;;;;5056299;28;20031;-80
2023/08/18 00:05:27;;;;;;;8.18;6.57;;;;;;;;;;5056855;28;20036;-80
2023/08/18 00:07:53;;;;;;;7.18;6.20;;;;;;;;;;5056692;28;20033;-80
2023/08/18 00:10:19;;;;;;;7.55;6.43;;;;;;;;;;5056516;28;20021;-79
2023/08/18 00:12:45;;;;;;;8.73;7.18;;;;;;;;;;5064634;28;20025;-80
2023/08/18 00:15:11;;;;;;;9.05;7.07;;;;;;;;;;5065082;28;20025;-80
2023/08/18 00:17:37;;;;;;;8.07;6.40;;;;;;;;;;5065337;28;20032;-80
2023/08/18 00:20:04;;;;;;;7.30;6.55;;;;;;;;;;5065290;28;20028;-80
2023/08/18 00:22:30;;;;;;;7.90;6.13;;;;;;;;;;5064905;28;20074;-80
2023/08/18 00:24:57;;;;;;;8.10;5.88;;;;;;;;;;5065185;28;20096;-80
2023/08/18 00:27:26;;;;;;;7.90;5.80;;;;;;;;;;5062683;28;20103;-80
2023/08/18 00:29:52;;;;;;;7.23;6.53;;;;;;;;;;5056208;28;20036;-79
2023/08/18 00:32:18;;;;;;;7.70;6.40;;;;;;;;;;5056014;28;20828;-79
2023/08/18 00:34:44;;;;;;;10.50;6.72;;;;;;;;;;5056282;28;20455;-79
2023/08/18 00:37:10;;;;;;;8.38;6.18;;;;;;;;;;5054659;28;20466;-79
2023/08/18 00:39:36;;;;;;;8.07;6.13;;;;;;;;;;5056417;28;20112;-79
2023/08/18 00:42:02;;;;;;;7.40;5.65;;;;;;;;;;5055877;28;20056;-79
2023/08/18 00:44:28;;;;;;;7.10;6.30;;;;;;;;;;5056950;28;20021;-80
2023/08/18 00:46:54;;;;;;;7.35;5.78;;;;;;;;;;5056710;28;20025;-80
2023/08/18 00:49:21;;;;;;;7.63;6.22;;;;;;;;;;5058723;28;20482;-80
2023/08/18 00:51:47;;;;;;;7.78;6.07;;;;;;;;;;5057200;28;20072;-79
2023/08/18 00:54:13;;;;;;;7.07;6.35;;;;;;;;;;5057544;28;20539;-80
2023/08/18 00:56:40;;;;;;;6.13;5.45;;;;;;;;;;5058659;28;20379;-80
2023/08/18 00:59:06;;;;;;;7.22;5.78;;;;;;;;;;5059566;28;20060;-80
2023/08/18 01:01:33;;;;;;;7.22;6.25;;;;;;;;;;5061134;28;20359;-80
2023/08/18 01:04:00;;;;;;;8.45;6.07;;;;;;;;;;5063491;28;20025;-80
2023/08/18 01:06:26;;;;;;;7.32;5.75;;;;;;;;;;5062499;28;20029;-80
2023/08/18 01:08:52;;;;;;;8.60;5.60;;;;;;;;;;5063305;28;20036;-80
2023/08/18 01:11:21;;;;;;;7.50;5.20;;;;;;;;;;5063504;28;20073;-80
2023/08/18 01:13:53;;;;;;;6.35;5.13;;;;;;;;;;5062953;28;20059;-80
2023/08/18 01:16:24;;;;;;;5.68;5.07;;;;;;;;;;5062968;28;20029;-80
2023/08/18 01:18:51;;;;;;;5.05;4.55;;;;;;;;;;5058438;28;20059;-80
2023/08/18 01:21:17;;;;;;;5.97;4.88;;;;;;;;;;5057027;28;20078;-79
2023/08/18 01:23:44;;;;;;;4.95;4.50;;;;;;;;;;5056366;28;20372;-80
2023/08/18 01:26:10;;;;;;;6.70;5.32;;;;;;;;;;5056146;28;20029;-79
2023/08/18 01:28:36;;;;;;;7.63;5.30;;;;;;;;;;5056310;28;20024;-80
2023/08/18 01:31:08;;;;;;;8.30;6.65;;;;;;;;;;5056258;28;20043;-79
2023/08/18 01:33:39;;;;;;;7.82;6.43;;;;;;;;;;5056241;28;20031;-79
2023/08/18 01:36:07;;;;;;;7.45;5.90;;;;;;;;;;5053312;28;20053;-80
2023/08/18 01:38:35;;;;;;;8.02;5.75;;;;;;;;;;5054815;28;20598;-80
2023/08/18 01:41:01;;;;;;;8.90;6.20;;;;;;;;;;5054501;28;20033;-80
2023/08/18 01:43:30;;;;;;;10.25;6.40;;;;;;;;;;5054523;28;20384;-80
2023/08/18 01:45:56;;;;;;;8.43;6.72;;;;;;;;;;5054491;28;20532;-79
2023/08/18 01:48:22;;;;;;;7.22;6.43;;;;;;;;;;5056842;28;20033;-80
2023/08/18 01:50:48;;;;;;;9.52;7.00;;;;;;;;;;5055745;28;20021;-79
2023/08/18 01:53:14;;;;;;;7.43;6.60;;;;;;;;;;5060618;28;20028;-79
2023/08/18 01:55:42;;;;;;;9.70;6.80;;;;;;;;;;5060144;28;20624;-80
2023/08/18 01:58:08;;;;;;;7.60;6.53;;;;;;;;;;5060032;28;20079;-80
2023/08/18 02:00:34;;;;;;;7.75;6.00;;;;;;;;;;5060619;28;20025;-79
2023/08/18 02:03:00;;;;;;;7.63;5.90;;;;;;;;;;5060883;28;20036;-80
2023/08/18 02:05:26;;;;;;;6.30;5.60;;;;;;;;;;5059557;28;20024;-79
2023/08/18 02:07:52;;;;;;;8.45;5.95;;;;;;;;;;5059264;28;20033;-79
2023/08/18 02:10:18;;;;;;;9.38;5.85;;;;;;;;;;5057273;28;20029;-79
2023/08/18 02:12:44;;;;;;;7.10;6.40;;;;;;;;;;5057421;28;20092;-79
2023/08/18 02:15:10;;;;;;;6.47;5.53;;;;;;;;;;5057672;28;20056;-79
2023/08/18 02:17:36;;;;;;;6.03;5.25;;;;;;;;;;5058321;28;20522;-79
2023/08/18 02:20:03;;;;;;;6.15;5.38;;;;;;;;;;5057302;28;20029;-79
2023/08/18 02:22:29;;;;;;;6.47;5.28;;;;;;;;;;5057196;28;20107;-79
2023/08/18 02:24:55;;;;;;;5.82;4.53;;;;;;;;;;5062381;28;20025;-79
2023/08/18 02:27:21;;;;;;;6.63;5.25;;;;;;;;;;5066313;28;20021;-79
2023/08/18 02:29:48;;;;;;;5.43;4.70;;;;;;;;;;5065904;28;20083;-79
2023/08/18 02:32:18;;;;;;;6.07;4.75;;;;;;;;;;5062025;28;20024;-79
2023/08/18 02:34:44;;;;;;;;;;;;;;;;;;5059901;28;20052;-78
2023/08/18 02:37:10;;;;;;;5.47;4.50;;;;;;;;;;5011894;28;1245259;-79
2023/08/18 02:39:36;;;;;;;5.85;4.10;;;;;;;;;;5055567;28;20029;-79
2023/08/18 02:42:03;;;;;;;6.20;4.40;;;;;;;;;;5056337;28;20052;-79
2023/08/18 02:44:29;;;;;;;6.32;3.97;;;;;;;;;;5056218;28;20021;-79
2023/08/18 02:46:55;;;;;;;5.07;4.40;;;;;;;;;;5055900;28;20028;-79
2023/08/18 02:49:21;;;;;;;5.13;4.60;;;;;;;;;;5055529;28;20040;-79
2023/08/18 02:51:47;;;;;;;5.60;4.65;;;;;;;;;;5055831;28;20061;-79
2023/08/18 02:54:13;;;;;;;5.20;4.22;;;;;;;;;;5054994;28;20090;-78
2023/08/18 02:56:39;;;;;;;5.32;4.35;;;;;;;;;;5055189;28;20017;-79
2023/08/18 02:59:06;;;;;;;6.90;4.00;;;;;;;;;;5055106;28;20452;-79
2023/08/18 03:01:32;;;;;;;5.68;4.10;;;;;;;;;;5055455;28;20025;-79
2023/08/18 03:03:58;;;;;;;5.10;4.10;;;;;;;;;;5057904;28;20069;-79
2023/08/18 03:06:24;;;;;;;4.85;4.32;;;;;;;;;;5057469;28;20025;-79
2023/08/18 03:08:50;;;;;;;4.72;4.07;;;;;;;;;;5058317;28;20036;-79
2023/08/18 03:11:16;;;;;;;4.88;4.28;;;;;;;;;;5061781;28;20038;-79
2023/08/18 03:13:42;;;;;;;7.05;4.60;;;;;;;;;;5060704;28;20052;-79
2023/08/18 03:16:09;;;;;;;5.10;4.40;;;;;;;;;;5060384;28;20369;-79
2023/08/18 03:18:35;;;;;;;5.38;4.30;;;;;;;;;;5060519;28;20523;-79
2023/08/18 03:21:03;;;;;;;4.72;4.22;;;;;;;;;;5059926;28;20110;-79
2023/08/18 03:23:29;;;;;;;4.22;3.78;;;;;;;;;;5059587;28;20442;-79
2023/08/18 03:26:00;;;;;;;5.72;4.07;;;;;;;;;;5060333;28;20423;-79
2023/08/18 03:28:27;;;;;;;5.70;4.53;;;;;;;;;;5060224;28;20110;-79
2023/08/18 03:31:04;;;;;;;7.18;4.22;;;;;;;;;;5059517;28;20024;-79
2023/08/18 03:33:30;;;;;;;5.93;4.70;;;;;;;;;;5058361;28;20033;-79
2023/08/18 03:35:56;;;;;;;5.50;4.53;;;;;;;;;;5059080;28;20496;-78
2023/08/18 03:38:22;;;;;;;6.47;4.32;;;;;;;;;;5058723;28;20040;-78
2023/08/18 03:40:49;;;;;;;5.47;4.80;;;;;;;;;;5058581;28;20032;-78
2023/08/18 03:43:15;;;;;;;5.13;4.43;;;;;;;;;;5057917;28;20060;-78
2023/08/18 03:45:41;;;;;;;6.28;4.68;;;;;;;;;;5058342;28;20040;-78
2023/08/18 03:48:08;;;;;;;5.93;4.30;;;;;;;;;;5056943;28;20037;-78
2023/08/18 03:50:34;;;;;;;6.85;5.53;;;;;;;;;;5059949;28;20029;-78
2023/08/18 03:53:00;;;;;;;5.68;5.10;;;;;;;;;;5057556;28;20079;-78
2023/08/18 03:55:26;;;;;;;5.32;4.82;;;;;;;;;;5057957;28;20029;-78
2023/08/18 03:57:52;;;;;;;5.97;5.13;;;;;;;;;;5057503;28;20460;-79
2023/08/18 04:00:18;;;;;;;7.43;5.05;;;;;;;;;;5057178;28;20021;-79
2023/08/18 04:02:44;;;;;;;6.85;4.93;;;;;;;;;;5057233;28;20090;-78
2023/08/18 04:05:10;;;;;;;7.78;4.85;;;;;;;;;;5057314;28;20464;-78
2023/08/18 04:07:36;;;;;;;7.22;5.32;;;;;;;;;;5057260;28;20029;-78
2023/08/18 04:10:03;;;;;;;7.28;4.95;;;;;;;;;;5056692;28;20029;-78
2023/08/18 04:12:29;;;;;;;5.35;4.30;;;;;;;;;;5057404;28;20096;-78
2023/08/18 04:14:55;;;;;;;5.32;4.80;;;;;;;;;;5057916;28;20021;-78
2023/08/18 04:17:21;;;;;;;6.28;5.05;;;;;;;;;;5060434;28;20025;-79
2023/08/18 04:19:47;;;;;;;7.78;5.18;;;;;;;;;;5059667;28;20032;-78
2023/08/18 04:22:13;;;;;;;6.57;5.30;;;;;;;;;;5058938;28;20025;-78
2023/08/18 04:24:39;;;;;;;6.57;4.78;;;;;;;;;;5059700;28;20448;-78
2023/08/18 04:27:05;;;;;;;5.72;4.88;;;;;;;;;;5061258;28;20017;-78
2023/08/18 04:29:31;;;;;;;8.30;5.10;;;;;;;;;;5059053;28;20033;-78
2023/08/18 04:31:57;;;;;;;5.93;4.90;;;;;;;;;;5057964;28;20132;-78
2023/08/18 04:34:23;;;;;;;6.05;5.45;;;;;;;;;;5056437;28;20029;-78
2023/08/18 04:36:49;;;;;;;7.45;4.90;;;;;;;;;;5056577;28;20048;-78
2023/08/18 04:39:16;;;;;;;7.18;5.20;;;;;;;;;;5058093;28;20035;-79
2023/08/18 04:41:42;;;;;;;8.88;5.30;;;;;;;;;;5058957;28;20076;-78
2023/08/18 04:44:08;;;;;;;6.25;5.38;;;;;;;;;;5057751;28;20048;-78
2023/08/18 04:46:34;;;;;;;10.20;5.85;;;;;;;;;;5058002;28;20052;-79
2023/08/18 04:49:00;;;;;;;6.40;4.72;;;;;;;;;;5058268;28;20381;-79
2023/08/18 04:51:27;;;;;;;10.38;5.68;;;;;;;;;;5059224;28;20053;-78
2023/08/18 04:53:53;;;;;;;8.85;6.05;;;;;;;;;;5058020;28;20017;-78
2023/08/18 04:56:19;;;;;;;6.45;5.28;;;;;;;;;;5057103;28;20468;-79
2023/08/18 04:58:45;;;;;;;7.03;5.03;;;;;;;;;;5056743;28;20033;-78
2023/08/18 05:01:11;;;;;;;8.65;5.18;;;;;;;;;;5057361;28;20033;-78
2023/08/18 05:03:37;;;;;;;8.18;5.32;;;;;;;;;;5059498;28;20016;-79
2023/08/18 05:06:07;;;;;;;9.88;5.22;;;;;;;;;;5059075;28;20025;-78
2023/08/18 05:08:33;;;;;;;;;;;;;;;;;;5058385;28;20632;-78
2023/08/18 05:11:06;;;;;;;6.05;4.93;;;;;;;;;;5059708;28;19915;-78
2023/08/18 05:13:33;;;;;;;8.98;4.80;;;;;;;;;;5055909;28;20025;-78
2023/08/18 05:16:00;;;;;;;8.07;4.97;;;;;;;;;;5058806;28;20081;-78
2023/08/18 05:18:26;;;;;;;9.15;5.85;;;;;;;;;;5059908;28;20656;-78
2023/08/18 05:20:52;;;;;;;12.60;6.10;;;;;;;;;;5055948;28;20017;-78
2023/08/18 05:23:19;;;;;;;10.05;5.90;;;;;;;;;;5056094;28;20037;-79
2023/08/18 05:25:45;;;;;;;8.57;6.13;;;;;;;;;;5040506;28;20032;-78
2023/08/18 05:28:13;;;;;;;10.15;5.50;;;;;;;;;;5053711;28;20464;-78
2023/08/18 05:30:39;;;;;;;8.05;5.68;;;;;;;;;;5056028;28;20029;-77
2023/08/18 05:33:05;;;;;;;7.15;4.88;;;;;;;;;;5053209;28;20079;-77
2023/08/18 05:35:32;;;;;;;9.18;5.60;;;;;;;;;;5036194;28;20535;-79
2023/08/18 05:37:58;;;;;;;7.13;5.18;;;;;;;;;;5053414;28;20039;-78
2023/08/18 05:40:24;;;;;;;9.10;5.85;;;;;;;;;;5055233;28;20024;-78
2023/08/18 05:42:50;;;;;;;10.85;5.38;;;;;;;;;;5056705;28;20412;-78
2023/08/18 05:45:16;;;;;;;9.55;5.82;;;;;;;;;;5055278;28;20025;-78
2023/08/18 05:47:42;;;;;;;8.75;5.68;;;;;;;;;;5054658;28;20037;-78
2023/08/18 05:50:11;;;;;;;10.80;6.50;;;;;;;;;;5045629;28;20034;-79
2023/08/18 05:52:37;;;;;;;9.70;6.07;;;;;;;;;;5049795;28;20021;-79
2023/08/18 05:55:04;;;;;;;9.70;5.18;;;;;;;;;;5054564;28;20096;-78
2023/08/18 05:57:30;;;;;;;12.50;7.00;;;;;;;;;;5056554;28;20083;-79
2023/08/18 05:59:56;;;;;;;8.40;5.60;;;;;;;;;;5054147;28;20353;-78
2023/08/18 06:02:22;;;;;;;9.65;5.93;;;;;;;;;;5055810;28;20036;-79
2023/08/18 06:04:48;;;;;;;9.05;6.18;;;;;;;;;;5053529;28;20100;-79
2023/08/18 06:07:14;;;;;;;8.43;5.60;;;;;;;;;;5052734;28;20032;-78
2023/08/18 06:09:40;;;;;;;10.20;6.63;;;;;;;;;;5052802;28;20531;-78
2023/08/18 06:12:06;;;;;;;10.35;6.50;;;;;;;;;;5052745;28;20094;-79
2023/08/18 06:14:32;;;;;;;10.52;6.55;;;;;;;;;;5053064;28;20021;-79
2023/08/18 06:16:58;;;;;;;9.77;6.53;;;;;;;;;;5052669;28;20419;-78
2023/08/18 06:19:24;;;;;;;11.63;6.50;;;;;;;;;;5052665;28;20029;-79
2023/08/18 06:21:51;;;;;;;9.23;6.35;;;;;;;;;;5052803;28;20427;-79
2023/08/18 06:24:17;;;;;;;8.10;5.30;;;;;;;;;;5053041;28;20025;-79
2023/08/18 06:26:43;;;;;;;11.30;6.72;;;;;;;;;;5052826;28;20100;-79
2023/08/18 06:29:09;;;;;;;10.35;6.78;;;;;;;;;;5052774;28;20080;-79
2023/08/18 06:31:35;;;;;;;11.02;6.82;;;;;;;;;;5052770;28;20036;-79
2023/08/18 06:34:01;;;;;;;11.75;6.25;;;;;;;;;;5057780;28;20025;-80
2023/08/18 06:36:27;;;;;;;9.68;7.30;;;;;;;;;;5053020;28;20041;-79
2023/08/18 06:38:54;;;;;;;9.68;7.25;;;;;;;;;;5052432;28;20036;-79
2023/08/18 06:41:20;;;;;;;12.20;6.45;;;;;;;;;;5052701;28;20033;-79
2023/08/18 06:43:46;;;;;;;13.07;7.60;;;;;;;;;;5053170;28;20075;-79
2023/08/18 06:46:12;;;;;;;10.85;6.85;;;;;;;;;;5056136;28;20112;-79
2023/08/18 06:48:38;;;;;;;13.63;7.35;;;;;;;;;;5063704;28;20028;-79
2023/08/18 06:51:04;;;;;;;9.43;5.85;;;;;;;;;;5056095;28;20104;-79
2023/08/18 06:53:30;;;;;;;11.18;6.93;;;;;;;;;;5055879;28;20033;-79
2023/08/18 06:55:56;;;;;;;12.15;7.00;;;;;;;;;;5056096;28;20032;-79
2023/08/18 06:58:22;;;;;;;10.23;6.22;;;;;;;;;;5056795;28;20029;-79
2023/08/18 07:00:48;;;;;;;8.35;6.07;;;;;;;;;;5056166;28;20032;-79
2023/08/18 07:03:14;;;;;;;10.73;6.72;;;;;;;;;;5055674;28;20146;-79
2023/08/18 07:05:40;;;;;;;10.38;6.20;;;;;;;;;;5055795;28;20359;-79
2023/08/18 07:08:07;;;;;;;8.90;6.35;;;;;;;;;;5055607;28;20032;-79
2023/08/18 07:10:33;;;;;;;8.63;6.65;;;;;;;;;;5055968;28;20079;-79
2023/08/18 07:12:59;;;;;;;9.40;6.57;;;;;;;;;;5055805;28;20057;-79
2023/08/18 07:15:25;;;;;;;11.00;7.13;;;;;;;;;;5055486;28;20047;-79
2023/08/18 07:17:51;;;;;;;12.23;6.50;;;;;;;;;;5058568;28;20027;-79
2023/08/18 07:20:17;;;;;;;8.88;6.70;;;;;;;;;;5056799;28;20063;-79
2023/08/18 07:22:43;;;;;;;12.30;7.13;;;;;;;;;;5055233;28;20025;-77
2023/08/18 07:25:10;;;;;;;12.02;6.93;;;;;;;;;;5057165;28;20108;-78
2023/08/18 07:27:36;;;;;;;9.77;7.10;;;;;;;;;;5063899;28;20021;-79
2023/08/18 07:30:04;;;;;;;8.15;6.40;;;;;;;;;;5055500;28;20041;-79
2023/08/18 07:32:30;;;;;;;12.13;7.13;;;;;;;;;;5055763;28;20055;-79
2023/08/18 07:34:56;;;;;;;7.93;5.95;;;;;;;;;;5055420;28;20095;-79
2023/08/18 07:37:23;;;;;;;9.45;6.43;;;;;;;;;;5055123;28;20646;-79
2023/08/18 07:39:49;;;;;;;8.85;6.47;;;;;;;;;;5058679;28;20671;-79
2023/08/18 07:42:15;;;;;;;7.88;6.68;;;;;;;;;;5057296;28;20025;-79
2023/08/18 07:44:41;;;;;;;9.60;6.45;;;;;;;;;;5045883;28;20033;-79
2023/08/18 07:47:08;;;;;;;7.88;5.60;;;;;;;;;;5056685;28;20490;-79
2023/08/18 07:49:34;;;;;;;11.38;7.07;;;;;;;;;;5057891;28;20418;-79
2023/08/18 07:52:00;;;;;;;8.10;5.57;;;;;;;;;;5057597;28;20032;-79
2023/08/18 07:54:26;;;;;;;9.13;5.50;;;;;;;;;;5055328;28;20478;-79
2023/08/18 07:56:52;;;;;;;9.00;6.15;;;;;;;;;;5056141;28;20082;-79
2023/08/18 07:59:24;;;;;;;8.75;5.80;;;;;;;;;;5057388;28;20103;-79
2023/08/18 08:01:51;;;;;;;8.73;6.43;;;;;;;;;;5056825;28;20023;-79
2023/08/18 08:04:17;;;;;;;7.35;5.15;;;;;;;;;;5057498;28;20033;-79
2023/08/18 08:06:43;;;;;;;5.10;4.50;;;;;;;;;;5056109;28;20097;-79
2023/08/18 08:09:09;;;;;;;7.28;5.35;;;;;;;;;;5055493;28;20021;-79
2023/08/18 08:11:34;;;;;;;6.82;4.70;;;;;;;;;;5056309;28;20029;-80
2023/08/18 08:14:01;;;;;;;7.22;4.15;;;;;;;;;;5056153;28;20048;-79
2023/08/18 08:16:28;;;;;;;8.20;5.05;;;;;;;;;;5056428;28;20075;-79
2023/08/18 08:18:54;;;;;;;8.05;4.72;;;;;;;;;;5059257;28;20094;-79
2023/08/18 08:21:20;;;;;;;7.63;4.43;;;;;;;;;;5064321;28;20069;-80
2023/08/18 08:23:47;;;;;;;6.28;4.55;;;;;;;;;;5056757;28;20420;-80
2023/08/18 08:26:13;;;;;;;6.72;5.25;;;;;;;;;;5066056;28;20032;-80
2023/08/18 08:28:39;;;;;;;8.02;5.32;;;;;;;;;;5060090;28;20025;-80
2023/08/18 08:31:05;;;;;;;6.18;4.65;;;;;;;;;;5056843;28;20029;-80
2023/08/18 08:33:31;;;;;;;6.10;4.78;;;;;;;;;;5057075;28;20065;-79
2023/08/18 08:35:57;;;;;;;7.20;4.75;;;;;;;;;;5056013;28;20948;-80
2023/08/18 08:38:23;;;;;;;7.72;4.88;;;;;;;;;;5057076;28;20726;-80
2023/08/18 08:40:54;;;;;;;8.70;5.18;;;;;;;;;;5057149;28;20025;-80
2023/08/18 08:43:31;;;;;;;7.60;5.32;;;;;;;;;;5055421;28;20423;-79
2023/08/18 08:45:59;;;;;;;8.23;5.15;;;;;;;;;;5055004;28;20419;-79
2023/08/18 08:48:27;;;;;;;7.47;5.80;;;;;;;;;;5053823;28;20063;-80
2023/08/18 08:50:56;;;;;;;7.93;5.45;;;;;;;;;;5055161;28;20112;-79
2023/08/18 08:53:27;;;;;;;7.13;4.72;;;;;;;;;;5055590;28;20025;-79
2023/08/18 08:55:53;;;;;;;8.82;5.60;;;;;;;;;;5056520;28;20055;-79
2023/08/18 08:58:19;;;;;;;5.82;4.63;;;;;;;;;;5055797;28;20075;-79
2023/08/18 09:00:46;;;;;;;7.63;4.80;;;;;;;;;;5054889;28;20024;-79
2023/08/18 09:03:12;;;;;;;7.38;4.40;;;;;;;;;;5056065;28;20056;-79
2023/08/18 09:05:38;;;;;;;5.18;4.45;;;;;;;;;;5057001;28;20493;-79
2023/08/18 09:08:04;;;;;;;5.82;3.80;;;;;;;;;;5064289;28;20103;-79
2023/08/18 09:10:33;;;;;;;5.90;3.97;;;;;;;;;;5055049;28;20029;-79
2023/08/18 09:12:59;;;;;;;6.75;4.63;;;;;;;;;;5061067;28;20025;-79
2023/08/18 09:15:25;;;;;;;7.57;4.38;;;;;;;;;;5065887;28;20029;-79
2023/08/18 09:17:51;;;;;;;7.22;4.32;;;;;;;;;;5058086;28;20029;-80
2023/08/18 09:20:18;;;;;;;5.38;4.70;;;;;;;;;;5066699;28;20033;-80
2023/08/18 09:22:44;;;;;;;7.00;4.43;;;;;;;;;;5054633;28;20021;-80
2023/08/18 09:25:10;;;;;;;5.32;3.90;;;;;;;;;;5054825;28;20025;-79
2023/08/18 09:27:37;;;;;;;5.90;4.13;;;;;;;;;;5054756;28;20349;-80
2023/08/18 09:33:07;;;;;;;6.00;3.83;;;;;;;;;;5066107;28;20036;-79
2023/08/18 09:35:34;;;;;;;5.78;4.10;;;;;;;;;;5054720;28;20475;-80
2023/08/18 09:38:01;;;;;;;7.03;4.10;;;;;;;;;;5054253;28;20037;-80
2023/08/18 09:40:27;;;;;;;5.88;4.75;;;;;;;;;;5054443;28;20517;-80
2023/08/18 09:42:53;;;;;;;6.30;4.35;;;;;;;;;;5054505;28;20025;-79
2023/08/18 09:45:23;;;;;;;8.43;4.40;;;;;;;;;;5054422;28;20024;-80
2023/08/18 09:47:51;;;;;;;6.82;5.07;;;;;;;;;;5061051;28;20048;-80
2023/08/18 09:50:19;;;;;;;7.13;4.70;;;;;;;;;;5054675;28;20028;-79
2023/08/18 09:52:47;;;;;;;6.93;4.65;;;;;;;;;;5054063;28;20078;-79
2023/08/18 09:55:17;;;;;;;8.20;5.32;;;;;;;;;;5057834;28;20025;-80
2023/08/18 09:58:01;;;;;;;8.80;4.90;;;;;;;;;;5062565;28;20021;-79
2023/08/18 10:00:27;;;;;;;6.40;4.65;;;;;;;;;;5063343;28;20033;-80
2023/08/18 10:02:55;;;;;;;5.68;3.42;;;;;;;;;;5057977;28;20075;-80
2023/08/18 10:05:21;;;;;;;6.07;4.50;;;;;;;;;;5055135;28;20044;-79
2023/08/18 10:07:47;;;;;;;6.63;4.07;;;;;;;;;;5054094;28;20031;-79
2023/08/18 10:10:14;;;;;;;6.28;3.80;;;;;;;;;;5054142;28;20029;-79
2023/08/18 10:12:41;;;;;;;10.45;4.53;;;;;;;;;;5054079;28;20380;-80
2023/08/18 10:15:07;;;;;;;6.72;4.65;;;;;;;;;;5053949;28;20413;-79
2023/08/18 10:17:33;;;;;;;7.20;4.00;;;;;;;;;;5053714;28;20027;-79
2023/08/18 10:20:00;;;;;;;8.43;4.43;;;;;;;;;;5056738;28;20466;-80
2023/08/18 10:22:30;;;;;;;8.73;4.30;;;;;;;;;;5058261;28;20419;-79
2023/08/18 10:24:56;;;;;;;;;;;;;;;;;;5068374;28;20043;-80
2023/08/18 10:27:28;;;;;;;7.43;4.10;;;;;;;;;;5069959;28;20123;-80
2023/08/18 10:30:02;;;;;;;8.63;4.22;;;;;;;;;;5061383;28;20028;-80
2023/08/18 10:32:30;;;;;;;8.40;4.25;;;;;;;;;;5065563;28;20520;-80
2023/08/18 10:35:18;;;;;;;5.78;3.97;;;;;;;;;;5060177;28;20017;-80
2023/08/18 10:37:44;;;;;;;8.25;5.30;;;;;;;;;;5056968;28;20380;-80
2023/08/18 10:40:22;;;;;;;6.20;4.43;;;;;;;;;;5057180;28;20483;-79
2023/08/18 10:42:48;;;;;;;6.72;4.75;;;;;;;;;;5057510;28;20047;-80
2023/08/18 10:45:24;;;;;;;8.20;4.75;;;;;;;;;;5060513;28;20120;-80
2023/08/18 10:47:50;;;;;;;6.25;4.40;;;;;;;;;;5058862;28;20017;-79
2023/08/18 10:50:18;;;;;;;6.30;4.78;;;;;;;;;;5057429;28;20052;-80
2023/08/18 10:52:44;;;;;;;6.60;4.80;;;;;;;;;;5059802;28;20032;-80
2023/08/18 10:55:11;;;;;;;8.25;4.82;;;;;;;;;;5058837;28;20021;-80
2023/08/18 10:57:46;;;;;;;6.97;4.93;;;;;;;;;;5058425;28;20036;-79
2023/08/18 11:00:12;;;;;;;8.23;5.15;;;;;;;;;;5058548;28;20024;-79
2023/08/18 11:02:39;;;;;;;6.82;5.03;;;;;;;;;;5057860;28;20029;-80
2023/08/18 11:05:06;;;;;;;7.90;5.30;;;;;;;;;;5057835;28;20033;-80
2023/08/18 11:07:32;;;;;;;6.93;5.45;;;;;;;;;;5064682;28;20237;-80
2023/08/18 11:09:58;;;;;;;7.00;5.05;;;;;;;;;;5057065;28;20033;-80
2023/08/18 11:12:24;;;;;;;7.35;5.32;;;;;;;;;;5063371;28;20025;-80
2023/08/18 11:14:50;;;;;;;7.72;5.93;;;;;;;;;;5070156;28;20024;-80
2023/08/18 11:17:16;;;;;;;8.30;5.45;;;;;;;;;;5063826;28;20029;-79
2023/08/18 11:19:42;;;;;;;8.55;5.55;;;;;;;;;;5060019;28;20106;-79
2023/08/18 11:22:08;;;;;;;8.77;5.97;;;;;;;;;;5059829;28;20032;-79
2023/08/18 11:24:37;;;;;;;11.60;6.78;;;;;;;;;;5078799;28;20601;-79
2023/08/18 11:27:03;;;;;;;8.25;6.35;;;;;;;;;;5077765;28;20418;-79
2023/08/18 11:29:29;;;;;;;8.27;6.43;;;;;;;;;;5080675;28;20036;-79
2023/08/18 11:31:55;;;;;;;7.18;6.00;;;;;;;;;;5079324;28;20103;-78
2023/08/18 11:34:22;;;;;;;7.85;6.18;;;;;;;;;;5077977;28;20056;-79
2023/08/18 11:36:48;;;;;;;9.65;7.35;;;;;;;;;;5080497;28;20059;-80
2023/08/18 11:39:15;;;;;;;10.88;7.60;;;;;;;;;;5060708;28;20029;-79
2023/08/18 11:41:45;;;;;;;9.23;7.68;;;;;;;;;;5054626;28;20033;-79
2023/08/18 11:44:11;;;;;;;8.85;6.85;;;;;;;;;;5056096;28;20032;-79
2023/08/18 11:46:38;;;;;;;9.05;7.15;;;;;;;;;;5057210;28;20025;-79
2023/08/18 11:49:13;;;;;;;9.30;7.13;;;;;;;;;;5062011;28;20044;-79
2023/08/18 11:51:54;;;;;;;10.32;7.38;;;;;;;;;;5060063;28;20495;-79
2023/08/18 11:54:20;;;;;;;12.50;7.40;;;;;;;;;;5054456;28;20032;-79
2023/08/18 11:56:47;;;;;;;12.13;7.90;;;;;;;;;;5055725;28;20399;-79
2023/08/18 11:59:22;;;;;;;11.00;7.45;;;;;;;;;;5064736;28;20491;-79
2023/08/18 12:01:53;;;;;;;12.32;8.55;;;;;;;;;;5060411;28;20415;-79
2023/08/18 12:04:23;;;;;;;13.85;8.15;;;;;;;;;;5055385;28;20032;-78
2023/08/18 12:06:49;;;;;;;13.55;8.60;;;;;;;;;;5058203;28;20017;-79
2023/08/18 12:09:15;;;;;;;14.00;8.52;;;;;;;;;;5059333;28;20482;-79
2023/08/18 12:11:41;;;;;;;10.80;8.02;;;;;;;;;;5057890;28;20021;-80
2023/08/18 12:14:07;;;;;;;11.30;8.05;;;;;;;;;;5062698;28;20024;-79
2023/08/18 12:16:34;;;;;;;11.25;8.63;;;;;;;;;;5063266;28;20031;-79
2023/08/18 12:19:01;;;;;;;11.18;8.13;;;;;;;;;;5055922;28;20028;-79
2023/08/18 12:21:27;;;;;;;13.07;8.60;;;;;;;;;;5057245;28;20021;-79
2023/08/18 12:23:54;;;;;;;11.18;8.38;;;;;;;;;;5057650;28;20036;-79
2023/08/18 12:26:20;;;;;;;13.95;9.57;;;;;;;;;;5056097;28;20025;-79
2023/08/18 12:28:46;;;;;;;11.60;8.18;;;;;;;;;;5060338;28;20029;-80
2023/08/18 12:31:13;;;;;;;13.27;8.70;;;;;;;;;;5055051;28;20056;-79
2023/08/18 12:33:39;;;;;;;11.52;8.32;;;;;;;;;;5053558;28;20025;-79
2023/08/18 12:36:06;;;;;;;12.68;8.55;;;;;;;;;;5053822;28;20396;-80
2023/08/18 12:38:32;;;;;;;13.25;8.23;;;;;;;;;;5057914;28;20047;-79
2023/08/18 12:40:58;;;;;;;12.45;8.65;;;;;;;;;;5057376;28;20103;-79
2023/08/18 12:43:24;;;;;;;11.68;8.95;;;;;;;;;;5054572;28;20032;-80
2023/08/18 12:45:50;;;;;;;12.45;8.98;;;;;;;;;;5055275;28;20117;-79
2023/08/18 12:48:16;;;;;;;10.90;8.27;;;;;;;;;;5055600;28;20356;-79
2023/08/18 12:50:42;;;;;;;11.20;8.82;;;;;;;;;;5068033;28;20494;-80
2023/08/18 12:53:08;;;;;;;11.80;9.18;;;;;;;;;;5055547;28;20022;-80
2023/08/18 12:55:34;;;;;;;11.18;9.10;;;;;;;;;;5039975;28;20056;-80
2023/08/18 12:58:00;;;;;;;9.60;8.27;;;;;;;;;;5039044;28;20036;-79
2023/08/18 13:00:26;;;;;;;12.63;9.77;;;;;;;;;;5035505;28;20497;-79
2023/08/18 13:02:53;;;;;;;10.70;8.93;;;;;;;;;;5040010;28;20107;-79
2023/08/18 13:05:19;;;;;;;12.05;8.85;;;;;;;;;;5035360;28;20114;-79
2023/08/18 13:07:48;;;;;;;11.30;10.10;;;;;;;;;;5035782;28;20034;-79
2023/08/18 13:10:14;;;;;;;11.85;9.55;;;;;;;;;;5056458;28;20037;-79
2023/08/18 13:12:40;;;;;;;12.45;9.40;;;;;;;;;;5054338;28;20099;-79
2023/08/18 13:15:06;;;;;;;11.05;8.98;;;;;;;;;;5056066;28;20052;-79
2023/08/18 13:17:32;;;;;;;10.85;9.73;;;;;;;;;;5062606;28;20021;-79
2023/08/18 13:19:58;;;;;;;11.25;8.90;;;;;;;;;;5055827;28;20037;-79
2023/08/18 13:22:25;;;;;;;11.20;9.18;;;;;;;;;;5054259;28;20021;-79
2023/08/18 13:24:54;;;;;;;12.18;9.40;;;;;;;;;;5062024;28;20033;-79
2023/08/18 13:27:21;;;;;;;12.93;10.75;;;;;;;;;;5058934;28;20056;-79
2023/08/18 13:29:47;;;;;;;13.55;9.80;;;;;;;;;;5053572;28;20014;-79
2023/08/18 13:32:13;;;;;;;13.18;10.23;;;;;;;;;;5055377;28;20140;-80
2023/08/18 13:34:40;;;;;;;11.30;9.20;;;;;;;;;;5057850;28;20081;-78
2023/08/18 13:37:12;;;;;;;10.43;9.10;;;;;;;;;;5053696;28;20049;-80
2023/08/18 13:39:38;;;;;;;12.70;10.82;;;;;;;;;;5054052;28;20043;-79
2023/08/18 13:42:04;;;;;;;11.02;9.88;;;;;;;;;;5060390;28;20678;-80
2023/08/18 13:44:30;;;;;;;12.65;10.55;;;;;;;;;;5053448;28;20036;-79
2023/08/18 13:46:57;;;;;;;12.90;10.55;;;;;;;;;;5053243;28;20025;-79
2023/08/18 13:49:24;;;;;;;12.50;10.95;;;;;;;;;;5059571;28;20075;-79
2023/08/18 13:51:49;;;;;;;11.90;10.45;;;;;;;;;;5064694;28;20028;-79
2023/08/18 13:54:15;;;;;;;12.73;11.00;;;;;;;;;;5055173;28;20029;-79
2023/08/18 13:56:42;;;;;;;12.30;10.98;;;;;;;;;;5056043;28;20032;-79
2023/08/18 13:59:08;;;;;;;10.52;9.43;;;;;;;;;;5063382;28;20035;-79
2023/08/18 14:01:34;;;;;;;11.50;10.23;;;;;;;;;;5052273;28;20021;-79
2023/08/18 14:04:01;;;;;;;12.45;10.68;;;;;;;;;;5055718;28;20028;-79
2023/08/18 14:06:27;;;;;;;14.27;10.13;;;;;;;;;;5059526;28;20025;-79
2023/08/18 14:08:53;;;;;;;11.73;10.50;;;;;;;;;;5055757;28;20037;-79
2023/08/18 14:11:21;;;;;;;12.55;10.50;;;;;;;;;;5053216;28;20029;-79
2023/08/18 14:13:47;;;;;;;12.07;10.25;;;;;;;;;;5055531;28;20380;-78
2023/08/18 14:16:13;;;;;;;10.90;9.55;;;;;;;;;;5052966;28;20203;-79
2023/08/18 14:18:39;;;;;;;12.15;10.10;;;;;;;;;;5055124;28;20028;-79
2023/08/18 14:21:05;;;;;;;10.18;9.05;;;;;;;;;;5057587;28;20103;-79
2023/08/18 14:23:31;;;;;;;11.25;10.05;;;;;;;;;;5063881;28;20033;-79
2023/08/18 14:25:57;;;;;;;12.65;11.35;;;;;;;;;;5058579;28;20032;-78
2023/08/18 14:28:23;;;;;;;13.30;10.10;;;;;;;;;;5058561;28;20064;-79
2023/08/18 14:30:49;;;;;;;11.60;10.40;;;;;;;;;;5059375;28;20073;-78
2023/08/18 14:33:22;;;;;;;11.27;9.65;;;;;;;;;;5054301;28;20436;-78
2023/08/18 14:35:48;;;;;;;13.15;10.77;;;;;;;;;;5057170;28;20078;-78
2023/08/18 14:38:14;;;;;;;11.80;10.48;;;;;;;;;;5057958;28;20128;-78